KCHS/CHS METAR and TAF weather

Enter ICAO airport designator
Station Type Date Time Source
KCHS METAR 2020/07/07 23:56 UTC NOAA

KCHS 072356Z 20005KT 10SM FEW010 SCT025 BKN035 26/24 A2992 RMK AO2 RAB26E35 TSE25 SLP131 P0000 60001 T02560244 10267 20244 55007 $


Station Type Date Time Source
KCHS Decoded METAR 2020/07/07 23:56 UTC NOAA

CHARLESTON INT'L AIRPORT, SC, United States (KCHS) 32-54N 080-02W 13M
Jul 07, 2020 - 07:56 PM EDT / 2020.07.07 2356 UTC
Wind: from the SSW (200 degrees) at 6 MPH (5 KT):0
Visibility: 10 mile(s):0
Sky conditions: mostly cloudy
Precipitation last hour: A trace
Temperature: 78.1 F (25.6 C)
Dew Point: 75.9 F (24.4 C)
Relative Humidity: 93%
Pressure (altimeter): 29.92 in. Hg (1013 hPa)
Pressure tendency: 0.02 inches (0.7 hPa) lower than three hours ago
ob: KCHS 072356Z 20005KT 10SM FEW010 SCT025 BKN035 26/24 A2992 RMK AO2 RAB26E35 TSE25 SLP131 P0000 60001 T02560244 10267 20244 55007
cycle: 0

Station Type Date Time Source
KCHS TAF 2020/07/07 18:42 UTC NOAA

TAF KCHS 071739Z 0718/0818 13005KT 6SM -SHRA SCT015 OVC045
TEMPO 0718/0721 3SM SHRA BR BKN015
FM072100 16008KT 6SM -SHRA SCT015 BKN025
FM080100 18004KT P6SM VCSH SCT010 OVC020
FM080700 23004KT P6SM SCT020 BKN035
FM081500 30005KT P6SM VCSH SCT025 BKN035

Example: see airport list